Inicio METAR Ruta Wind Satelite

Informe Meteorológico

Fecha: 2020/07/02 00:19:18 Local
2020.07.02 05:19 UTC


Estado: VENCIDO
Operación:VFR
Cucuta / Camilo Daza, Colombia (SKCC) 07-56N 072-31W 317M
2020.07.01 2300 UTC
Wind: from the N (360 degrees) at 8 MPH (7 KT):0
Visibility: greater than 7 mile(s):0
Sky conditions: partly cloudy
Temperature: 80 F (27 C)
Dew Point: 69 F (21 C)
Relative Humidity: 69%
Pressure (altimeter): 29.88 in. Hg (1011 hPa)
ob: SKCC 012300Z 36007KT 9999 SCT023 SCT090 27/21 A2988
cycle: 23

SKCC 012200Z 34006KT 320V030 9999 SCT023 SCT090 29/21 A2986
SKCC 012100Z 36004KT 9999 SCT023 SCT090 29/21 A2984
SKCC 012000Z 01008KT 340V040 9999 FEW022TCU SCT023 SCT090 29/22 A2985 RMK TCU/NW
SKCC 011900Z 35010KT 9999 SCT023 SCT090 30/22 A2985
SKCC 011800Z VRB03KT 9999 VCSH SCT023 SCT090 32/21 A2987 RMK VCSH NE

2020/07/02 06:42
TAF TAF SKCC 020430Z 0206/0306 VRB02KT SCT015 SCT090 PROB40
TEMPO 0210/0212 500 BR
BECMG 0216/0217 36010KT
TEMPO 0220/0223 DZ SCT015CB BKN080 TX36/0218Z TN25/0211Z